Time;durP1;ratioP1;P1;durP2;ratioP2;P2;SDS_P1;SDS_P2;PMS_P1;PMS_P2;Temp;Humidity;BMP_temperature;BMP_pressure;BME280_temperature;BME280_humidity;BME280_pressure;Samples;Min_cycle;Max_cycle;Signal;HPM_P1;HPM_P2
2023/10/07 13:28:13;;;;;;;17.58;4.43;;;;;;;25.92;30.29;99210.28;5812390;22;2680244;-88
2023/10/07 13:30:39;;;;;;;12.40;4.53;;;;;;;25.87;30.17;99211.91;5028863;23;20549;-83
2023/10/07 13:33:06;;;;;;;10.70;4.57;;;;;;;25.81;30.46;99209.03;4949770;28;20066;-90
2023/10/07 13:35:35;;;;;;;13.60;5.00;;;;;;;25.87;30.15;99206.56;4955815;28;20039;-91
2023/10/07 13:38:10;;;;;;;12.60;4.40;;;;;;;25.70;30.24;99172.22;4965972;28;20045;-92
2023/10/07 13:40:38;;;;;;;11.77;4.55;;;;;;;25.91;30.34;99197.91;5555493;23;20877;-82
2023/10/07 13:43:06;;;;;;;12.98;4.68;;;;;;;25.99;29.97;99200.41;4982908;28;20042;-90
2023/10/07 13:45:39;;;;;;;11.82;4.25;;;;;;;25.98;29.87;99196.09;4972834;28;20034;-90
2023/10/07 13:48:07;;;;;;;12.75;4.80;;;;;;;26.11;30.18;99197.94;5021188;28;20072;-88
2023/10/07 13:50:34;;;;;;;10.52;4.50;;;;;;;26.15;30.16;99188.47;4997511;28;20034;-89
2023/10/07 13:53:12;;;;;;;9.88;4.40;;;;;;;26.18;29.84;99193.41;4984668;28;20044;-87
2023/10/07 13:58:16;;;;;;;7.40;4.60;;;;;;;26.18;30.94;99188.03;4980186;28;20149;-83
2023/10/07 14:01:05;;;;;;;10.52;4.43;;;;;;;26.15;30.60;99182.28;4985076;28;20038;-78
2023/10/07 14:03:36;;;;;;;9.73;4.65;;;;;;;26.15;30.05;99179.63;4991775;28;20114;-79
2023/10/07 14:06:06;;;;;;;18.98;4.88;;;;;;;26.11;29.89;99175.72;4976152;28;20022;-78
2023/10/07 14:08:42;;;;;;;12.65;4.05;;;;;;;25.95;29.82;99175.09;4957865;28;20038;-80
2023/10/07 14:11:09;;;;;;;11.20;4.63;;;;;;;25.93;30.08;99176.31;4946602;28;20045;-77
2023/10/07 14:13:36;;;;;;;13.00;4.55;;;;;;;25.89;30.48;99167.06;4960111;28;20030;-78
2023/10/07 14:16:09;;;;;;;12.07;4.57;;;;;;;25.81;30.11;99168.09;4971472;28;20030;-77
2023/10/07 14:18:38;;;;;;;10.68;4.60;;;;;;;25.79;30.45;99162.97;4958967;28;20038;-78
2023/10/07 14:21:07;;;;;;;11.38;4.70;;;;;;;25.81;30.60;99165.44;4975927;28;20037;-76
2023/10/07 14:23:53;;;;;;;12.38;4.63;;;;;;;25.77;30.29;99166.84;4975712;28;20033;-78
2023/10/07 14:26:32;;;;;;;11.10;4.53;;;;;;;25.60;30.00;99167.25;4975702;28;20026;-79
2023/10/07 14:29:01;;;;;;;16.75;4.72;;;;;;;25.58;30.64;99165.81;4960983;28;20034;-74
2023/10/07 14:31:27;;;;;;;13.63;5.07;;;;;;;25.56;30.63;99159.84;4944260;28;20125;-73
2023/10/07 14:33:54;;;;;;;11.98;4.95;;;;;;;25.55;30.36;99161.69;4943062;28;20109;-73
2023/10/07 14:36:22;;;;;;;18.25;5.10;;;;;;;25.59;30.57;99159.44;4959920;28;20476;-73
2023/10/07 14:38:54;;;;;;;16.50;4.50;;;;;;;25.62;30.95;99154.50;4975155;28;20065;-74
2023/10/07 14:41:20;;;;;;;9.25;4.80;;;;;;;25.63;30.16;99158.00;4960619;28;20050;-73
2023/10/07 14:43:46;;;;;;;10.98;4.78;;;;;;;25.61;30.01;99160.06;4974211;28;20081;-73
2023/10/07 14:46:11;;;;;;;16.42;4.90;;;;;;;25.58;29.95;99165.81;4959321;28;20030;-73
2023/10/07 14:48:38;;;;;;;14.10;4.80;;;;;;;25.60;30.31;99158.41;4942862;28;20030;-73
2023/10/07 14:51:07;;;;;;;9.88;5.03;;;;;;;25.62;30.60;99162.53;4975374;28;20045;-73
2023/10/07 14:53:35;;;;;;;12.13;4.85;;;;;;;25.59;30.42;99156.78;4943004;28;20042;-73
2023/10/07 14:56:08;;;;;;;9.82;4.80;;;;;;;25.52;30.14;99164.78;4958982;28;20037;-73
2023/10/07 14:58:36;;;;;;;14.98;4.90;;;;;;;25.48;30.15;99166.22;4975087;28;20038;-82
2023/10/07 15:01:02;;;;;;;11.77;5.00;;;;;;;25.46;30.51;99170.94;4961803;28;20118;-84
2023/10/07 15:03:29;;;;;;;12.23;5.25;;;;;;;25.39;30.39;99162.91;4962856;28;20042;-85
2023/10/07 15:06:05;;;;;;;16.20;5.38;;;;;;;25.40;30.13;99163.75;4980498;28;20467;-86
2023/10/07 15:08:34;;;;;;;11.63;4.72;;;;;;;25.37;30.20;99164.16;5012967;28;20044;-75
2023/10/07 15:11:00;;;;;;;7.50;4.75;;;;;;;25.33;30.25;99166.38;4994750;28;20064;-84
2023/10/07 15:13:28;;;;;;;11.48;4.78;;;;;;;25.29;30.07;99170.50;4963027;28;20458;-86
2023/10/07 15:15:54;;;;;;;9.35;4.70;;;;;;;25.25;29.86;99174.56;5012343;28;20497;-86
2023/10/07 15:18:20;;;;;;;10.20;4.30;;;;;;;25.16;30.65;99167.75;4962914;28;20494;-84
2023/10/07 15:20:48;;;;;;;9.65;4.70;;;;;;;25.19;30.13;99170.88;4964212;28;20038;-86
2023/10/07 15:23:18;;;;;;;10.18;4.78;;;;;;;25.16;30.55;99171.25;4982928;28;20069;-87
2023/10/07 15:25:46;;;;;;;9.75;4.97;;;;;;;25.14;30.37;99162.59;4963611;28;20033;-80
2023/10/07 15:28:14;;;;;;;8.88;4.78;;;;;;;25.11;30.56;99168.34;4995863;28;20048;-84
2023/10/07 15:30:45;;;;;;;18.10;5.60;;;;;;;25.06;30.90;99166.31;4994514;28;20041;-76
2023/10/07 15:33:14;;;;;;;8.80;5.20;;;;;;;25.01;31.17;99168.72;4978842;28;20033;-80
2023/10/07 15:35:47;;;;;;;9.02;5.18;;;;;;;24.97;31.57;99170.19;5008409;28;20096;-78
2023/10/07 15:38:14;;;;;;;10.13;5.45;;;;;;;24.91;32.22;99174.47;4978874;28;20045;-82
2023/10/07 15:40:43;;;;;;;17.05;5.47;;;;;;;24.80;32.64;99166.22;4977937;28;20065;-80
2023/10/07 15:43:09;;;;;;;11.43;5.28;;;;;;;24.72;32.98;99176.03;4962782;28;20089;-80
2023/10/07 15:45:45;;;;;;;11.73;5.07;;;;;;;24.64;33.24;99172.72;4978046;28;20496;-81
2023/10/07 15:48:11;;;;;;;10.98;5.13;;;;;;;24.51;33.20;99165.41;4962161;28;20033;-78
2023/10/07 15:50:39;;;;;;;12.48;5.05;;;;;;;24.42;33.30;99164.75;4977281;28;20037;-79
2023/10/07 15:53:07;;;;;;;10.00;4.68;;;;;;;24.37;33.40;99173.34;4977271;28;20042;-79
2023/10/07 15:55:35;;;;;;;9.80;5.25;;;;;;;24.23;33.40;99168.94;4979763;28;20124;-80
2023/10/07 15:58:02;;;;;;;11.75;5.10;;;;;;;24.18;33.67;99176.72;4993422;28;20069;-80
2023/10/07 16:00:32;;;;;;;7.80;4.85;;;;;;;24.07;33.91;99182.56;4977067;28;20065;-78
2023/10/07 16:03:03;;;;;;;11.77;5.05;;;;;;;23.95;33.70;99177.75;4995701;28;20026;-78
2023/10/07 16:05:34;;;;;;;12.23;4.85;;;;;;;23.84;33.44;99175.63;4997650;28;20132;-79
2023/10/07 16:08:07;;;;;;;12.02;4.80;;;;;;;23.70;33.70;99168.50;4980801;28;20416;-78
2023/10/07 16:10:36;;;;;;;10.25;5.28;;;;;;;23.65;34.15;99175.22;4980760;28;20184;-81
2023/10/07 16:13:02;;;;;;;17.85;5.25;;;;;;;23.56;34.19;99181.72;4997222;28;20079;-80
2023/10/07 16:15:27;;;;;;;12.55;4.93;;;;;;;23.48;34.27;99177.34;4980613;28;20131;-76
2023/10/07 16:17:56;;;;;;;13.32;5.70;;;;;;;23.41;34.60;99176.44;4997050;28;20029;-80
2023/10/07 16:20:22;;;;;;;11.00;6.18;;;;;;;23.32;34.66;99176.75;4981660;28;20154;-80
2023/10/07 16:22:59;;;;;;;10.43;5.63;;;;;;;23.20;35.00;99176.41;4996842;28;20113;-80
2023/10/07 16:25:25;;;;;;;12.35;5.80;;;;;;;23.17;34.83;99172.28;4994213;28;20469;-80
2023/10/07 16:27:52;;;;;;;12.15;5.50;;;;;;;23.13;35.00;99179.00;4980242;28;20080;-80
2023/10/07 16:30:25;;;;;;;12.85;5.43;;;;;;;23.06;35.13;99175.41;4980336;28;20077;-88
2023/10/07 16:32:51;;;;;;;14.63;5.63;;;;;;;23.00;35.16;99173.50;5014899;28;20033;-82
2023/10/07 16:35:16;;;;;;;9.18;5.30;;;;;;;22.93;35.28;99176.91;4981029;28;20034;-82
2023/10/07 16:37:42;;;;;;;10.70;5.22;;;;;;;22.86;35.22;99188.47;4980498;28;20037;-81
2023/10/07 16:40:08;;;;;;;13.15;5.30;;;;;;;22.77;35.66;99182.41;4960568;28;20054;-82
2023/10/07 16:42:34;;;;;;;9.65;5.45;;;;;;;22.67;35.66;99176.56;4960247;28;20050;-82
2023/10/07 16:45:03;;;;;;;11.02;5.28;;;;;;;22.61;35.98;99186.09;4960379;28;20502;-81
2023/10/07 16:47:29;;;;;;;;;;;;;;;22.55;36.02;99181.50;4961517;28;20047;-81
2023/10/07 16:49:55;;;;;;;9.77;5.43;;;;;;;22.44;35.60;99181.97;4960800;28;19920;-82
2023/10/07 16:52:21;;;;;;;11.82;5.50;;;;;;;22.37;35.76;99189.84;4961379;28;20038;-82
2023/10/07 16:54:47;;;;;;;11.30;4.80;;;;;;;22.32;35.82;99194.91;4975975;28;20046;-82
2023/10/07 16:57:14;;;;;;;8.77;4.22;;;;;;;22.27;36.33;99194.59;4976894;28;20022;-77
2023/10/07 16:59:41;;;;;;;9.90;4.63;;;;;;;22.16;36.24;99190.53;4961519;28;20030;-79
2023/10/07 17:02:10;;;;;;;6.70;4.20;;;;;;;22.13;36.57;99193.56;4965931;28;20037;-81
2023/10/07 17:04:36;;;;;;;9.05;4.40;;;;;;;22.05;36.38;99199.78;5033814;28;20069;-76
2023/10/07 17:07:05;;;;;;;7.00;4.20;;;;;;;22.00;36.78;99197.66;4992582;28;20029;-80
2023/10/07 17:09:31;;;;;;;8.75;4.10;;;;;;;21.88;36.43;99183.13;4999560;28;20444;-75
2023/10/07 17:12:00;;;;;;;8.93;4.05;;;;;;;21.85;36.19;99191.47;4999056;28;20030;-77
2023/10/07 17:14:26;;;;;;;10.38;5.05;;;;;;;21.83;36.53;99204.94;4999721;28;20132;-78
2023/10/07 17:16:54;;;;;;;10.77;4.45;;;;;;;21.78;36.34;99188.72;4999385;28;20067;-81
2023/10/07 17:19:20;;;;;;;8.02;4.07;;;;;;;21.78;36.74;99187.91;5014287;28;20037;-77
2023/10/07 17:21:47;;;;;;;7.05;4.25;;;;;;;21.95;37.69;99197.38;5015558;28;20412;-73
2023/10/07 17:24:13;;;;;;;10.07;4.55;;;;;;;21.93;37.75;99182.59;4998369;28;20041;-71
2023/10/07 17:26:38;;;;;;;12.20;4.65;;;;;;;21.98;37.21;99194.38;4983142;28;20072;-77
2023/10/07 17:29:05;;;;;;;13.07;4.75;;;;;;;21.97;37.71;99191.88;4982909;28;20059;-69
2023/10/07 17:31:31;;;;;;;7.95;4.40;;;;;;;21.95;37.36;99194.72;4999588;28;20029;-70
2023/10/07 17:33:58;;;;;;;6.20;4.10;;;;;;;21.91;37.70;99189.94;4981873;28;20647;-70
2023/10/07 17:36:24;;;;;;;6.55;4.18;;;;;;;21.86;38.08;99193.13;4998693;28;20128;-75
2023/10/07 17:38:49;;;;;;;10.95;4.43;;;;;;;21.95;38.24;99188.56;4982570;28;20053;-71
2023/10/07 17:41:17;;;;;;;7.88;4.38;;;;;;;21.84;37.56;99193.31;4981612;28;20144;-71
2023/10/07 17:43:43;;;;;;;15.25;5.03;;;;;;;21.88;38.05;99190.28;4982295;28;20128;-70
2023/10/07 17:46:08;;;;;;;8.77;4.40;;;;;;;21.69;38.14;99184.47;4967255;28;20485;-71
2023/10/07 17:48:34;;;;;;;18.42;4.45;;;;;;;21.76;38.33;99190.72;4961830;28;20428;-72
2023/10/07 17:51:00;;;;;;;23.48;4.72;;;;;;;21.76;37.82;99188.06;4962296;28;20044;-73
2023/10/07 17:53:26;;;;;;;11.30;4.70;;;;;;;21.59;37.68;99189.19;4978835;28;20524;-73
2023/10/07 17:55:51;;;;;;;15.93;4.20;;;;;;;21.50;38.30;99199.84;4977737;28;20116;-71
2023/10/07 17:58:19;;;;;;;9.02;4.57;;;;;;;21.39;38.33;99186.97;4960117;28;20394;-71
2023/10/07 18:00:48;;;;;;;;;;;;;;;21.44;38.92;99191.75;4977516;28;20037;-72
2023/10/07 18:03:17;;;;;;;10.13;4.63;;;;;;;21.47;38.72;99188.72;4980789;28;20327;-72
2023/10/07 18:05:43;;;;;;;12.05;4.82;;;;;;;21.51;38.96;99195.38;4958484;28;20607;-72
2023/10/07 18:08:08;;;;;;;10.98;4.70;;;;;;;21.48;38.76;99191.25;4976540;28;20081;-71
2023/10/07 18:10:34;;;;;;;14.27;4.75;;;;;;;21.50;38.98;99196.38;4961110;28;20120;-70
2023/10/07 18:13:06;;;;;;;8.23;4.20;;;;;;;21.46;38.61;99195.06;4977523;28;20057;-71
2023/10/07 18:15:33;;;;;;;12.43;4.53;;;;;;;21.48;39.05;99201.88;4978660;28;20040;-71
2023/10/07 18:17:59;;;;;;;11.38;4.90;;;;;;;21.48;39.02;99196.56;4994075;28;20032;-70
2023/10/07 18:20:25;;;;;;;12.90;5.10;;;;;;;21.45;38.92;99201.38;4961527;28;20042;-72
2023/10/07 18:22:50;;;;;;;9.50;4.70;;;;;;;21.33;39.40;99196.47;4962111;28;20477;-72
2023/10/07 18:25:17;;;;;;;7.43;4.32;;;;;;;21.29;39.44;99211.09;4977302;28;20046;-75
2023/10/07 18:27:42;;;;;;;12.90;4.85;;;;;;;21.19;39.19;99199.88;4961715;28;20044;-74
2023/10/07 18:30:12;;;;;;;16.05;5.03;;;;;;;21.23;40.53;99214.44;4960811;28;20049;-80
2023/10/07 18:32:40;;;;;;;14.20;4.65;;;;;;;21.57;40.16;99212.44;4993703;28;20025;-80
2023/10/07 18:35:07;;;;;;;11.45;4.50;;;;;;;21.91;39.32;99214.69;5012122;28;20080;-78
2023/10/07 18:37:35;;;;;;;12.38;5.35;;;;;;;22.16;39.01;99217.94;4994889;28;20033;-80
2023/10/07 18:40:01;;;;;;;;;;;;;;;22.36;38.74;99214.78;4962725;28;20050;-77
2023/10/07 18:42:30;;;;;;;14.38;4.90;;;;;;;22.48;38.19;99217.84;4978299;28;19924;-76
2023/10/07 18:44:57;;;;;;;10.02;4.60;;;;;;;22.59;37.99;99207.56;4962744;28;20038;-77
2023/10/07 18:47:22;;;;;;;10.82;4.47;;;;;;;22.69;38.07;99215.28;4978435;28;20065;-79
2023/10/07 18:49:48;;;;;;;6.65;4.43;;;;;;;22.72;37.57;99206.94;4993320;28;20659;-77
2023/10/07 18:52:14;;;;;;;9.75;4.07;;;;;;;22.78;37.64;99202.69;4962082;28;20112;-77
2023/10/07 18:54:40;;;;;;;9.48;5.05;;;;;;;22.84;37.48;99209.94;4961957;28;20112;-76
2023/10/07 18:57:05;;;;;;;6.70;4.32;;;;;;;22.87;37.48;99206.09;4961624;28;20064;-80
2023/10/07 18:59:31;;;;;;;11.63;4.75;;;;;;;22.89;37.05;99204.88;4961879;28;20037;-76
2023/10/07 19:01:57;;;;;;;7.25;4.10;;;;;;;22.91;37.04;99207.38;4977659;28;20044;-75
2023/10/07 19:04:24;;;;;;;8.20;4.53;;;;;;;22.82;36.48;99203.16;4979276;28;20065;-87
2023/10/07 19:06:50;;;;;;;8.73;4.30;;;;;;;22.55;36.88;99198.31;4963945;28;20037;-85
2023/10/07 19:09:15;;;;;;;8.25;4.50;;;;;;;22.30;36.94;99202.25;4996498;28;20276;-84
2023/10/07 19:11:41;;;;;;;9.45;4.32;;;;;;;22.09;37.41;99203.75;4963004;28;20030;-84
2023/10/07 19:14:06;;;;;;;8.00;4.38;;;;;;;21.96;37.47;99200.84;4979115;28;20026;-85
2023/10/07 19:16:32;;;;;;;7.20;3.90;;;;;;;21.81;37.85;99203.47;4963003;28;20037;-85
2023/10/07 19:18:57;;;;;;;5.05;3.53;;;;;;;21.68;37.84;99204.06;4979312;28;20091;-85
2023/10/07 19:21:23;;;;;;;7.57;4.10;;;;;;;21.58;38.25;99198.97;4995472;28;20040;-85
2023/10/07 19:23:48;;;;;;;7.68;4.18;;;;;;;21.48;38.27;99203.69;4962998;28;20034;-85
2023/10/07 19:26:17;;;;;;;12.48;4.40;;;;;;;21.44;39.63;99207.69;4963726;28;20033;-85
2023/10/07 19:28:47;;;;;;;11.02;4.20;;;;;;;21.39;40.09;99205.53;4963202;28;20048;-79
2023/10/07 19:31:16;;;;;;;8.05;4.50;;;;;;;21.32;40.40;99207.25;4978455;28;20033;-79
2023/10/07 19:33:42;;;;;;;11.27;4.68;;;;;;;21.22;40.49;99206.66;4962076;28;20429;-80
2023/10/07 19:36:07;;;;;;;7.43;4.30;;;;;;;21.18;41.01;99208.00;4977202;28;20046;-80
2023/10/07 19:38:37;;;;;;;7.93;4.18;;;;;;;21.09;41.24;99200.06;4962243;28;20030;-84
2023/10/07 19:41:04;;;;;;;7.70;4.60;;;;;;;21.04;41.19;99198.94;4977970;28;20046;-80
2023/10/07 19:43:31;;;;;;;9.70;4.38;;;;;;;20.94;41.49;99192.03;4994572;28;20029;-78
2023/10/07 19:45:58;;;;;;;10.57;4.63;;;;;;;20.91;41.57;99202.97;4977610;28;20042;-79
2023/10/07 19:48:26;;;;;;;9.75;5.40;;;;;;;20.86;41.70;99201.84;4961454;28;20401;-78
2023/10/07 19:50:55;;;;;;;9.65;5.38;;;;;;;20.82;41.79;99209.31;4962215;28;20105;-79
2023/10/07 19:53:21;;;;;;;9.48;5.10;;;;;;;20.77;41.85;99199.22;4994328;28;20049;-80
2023/10/07 19:55:47;;;;;;;11.65;5.00;;;;;;;20.73;41.88;99197.91;4961914;28;20065;-78
2023/10/07 19:58:13;;;;;;;10.55;4.45;;;;;;;20.70;41.90;99198.25;4977835;28;20038;-79
2023/10/07 20:00:46;;;;;;;7.00;4.53;;;;;;;20.66;41.78;99186.31;4961911;28;20045;-82
2023/10/07 20:03:11;;;;;;;7.00;4.18;;;;;;;20.58;41.73;99179.19;4994593;28;20034;-82
2023/10/07 20:05:37;;;;;;;9.05;4.30;;;;;;;20.61;41.58;99184.16;4978545;28;20099;-83
2023/10/07 20:08:04;;;;;;;7.85;4.22;;;;;;;20.56;41.69;99177.72;4980912;28;20105;-83
2023/10/07 20:10:31;;;;;;;7.93;4.22;;;;;;;20.57;41.42;99182.88;4965972;28;20030;-84
2023/10/07 20:12:58;;;;;;;7.32;4.30;;;;;;;20.55;41.39;99187.47;4998497;28;20022;-82
2023/10/07 20:15:26;;;;;;;9.30;4.28;;;;;;;20.51;41.63;99180.88;4998462;28;20114;-82
2023/10/07 20:17:52;;;;;;;6.63;3.83;;;;;;;20.53;41.43;99188.69;4998616;28;20037;-82
2023/10/07 20:20:18;;;;;;;8.20;4.63;;;;;;;20.50;41.49;99184.53;4980967;28;20046;-81
2023/10/07 20:22:43;;;;;;;8.05;4.15;;;;;;;20.48;41.33;99180.38;4997796;28;20030;-83
2023/10/07 20:25:09;;;;;;;8.50;4.03;;;;;;;20.42;41.62;99171.28;4965184;28;20104;-81
2023/10/07 20:27:36;;;;;;;9.20;4.60;;;;;;;20.41;41.44;99183.75;4965633;28;20504;-84
2023/10/07 20:30:05;;;;;;;9.00;4.50;;;;;;;20.40;41.32;99171.47;4965796;28;20037;-83
2023/10/07 20:32:34;;;;;;;7.40;4.15;;;;;;;20.40;41.36;99178.59;4981781;28;20041;-82
2023/10/07 20:35:10;;;;;;;9.60;4.57;;;;;;;20.35;41.32;99172.97;4981934;28;20575;-85
2023/10/07 20:37:36;;;;;;;7.75;4.68;;;;;;;20.35;41.26;99171.16;4999210;28;20085;-82
2023/10/07 20:40:04;;;;;;;6.75;4.00;;;;;;;20.30;41.28;99162.03;4981899;28;20080;-82
2023/10/07 20:42:32;;;;;;;9.38;4.50;;;;;;;20.33;41.27;99172.31;4982186;28;20052;-81
2023/10/07 20:44:58;;;;;;;5.85;3.78;;;;;;;20.34;41.09;99184.56;4965857;28;20501;-84
2023/10/07 20:47:24;;;;;;;5.53;3.83;;;;;;;20.32;41.27;99174.13;4980943;28;20053;-83
2023/10/07 20:49:51;;;;;;;8.15;4.25;;;;;;;20.28;40.84;99169.34;4981304;28;20030;-83
2023/10/07 20:52:17;;;;;;;10.57;4.50;;;;;;;20.27;41.01;99171.16;4981150;28;20041;-82
2023/10/07 20:54:44;;;;;;;11.82;4.75;;;;;;;20.24;40.61;99167.03;4981726;28;20029;-83
2023/10/07 20:57:10;;;;;;;6.03;3.90;;;;;;;20.25;40.80;99167.84;4997549;28;20040;-81
2023/10/07 20:59:36;;;;;;;7.25;4.32;;;;;;;20.22;40.93;99166.34;4964938;28;20029;-81
2023/10/07 21:02:01;;;;;;;13.80;4.00;;;;;;;20.20;40.65;99165.69;4964663;28;20409;-82
2023/10/07 21:04:27;;;;;;;8.20;4.07;;;;;;;20.17;40.99;99165.22;4964915;28;20065;-81
2023/10/07 21:06:54;;;;;;;7.05;4.30;;;;;;;20.15;40.78;99160.09;4981462;28;20116;-82
2023/10/07 21:09:19;;;;;;;6.15;3.90;;;;;;;20.13;40.75;99156.78;4964351;28;20135;-82
2023/10/07 21:11:46;;;;;;;8.95;3.78;;;;;;;20.14;40.91;99166.38;4981400;28;20061;-83
2023/10/07 21:14:12;;;;;;;10.52;4.40;;;;;;;20.15;40.94;99159.28;4965013;28;20034;-82
2023/10/07 21:16:38;;;;;;;9.15;4.32;;;;;;;20.12;40.88;99156.94;4997013;28;20033;-82
2023/10/07 21:19:05;;;;;;;6.03;3.80;;;;;;;20.06;41.06;99150.50;4964937;28;20029;-82
2023/10/07 21:21:31;;;;;;;9.38;3.78;;;;;;;20.05;40.71;99147.03;4981694;28;20041;-83
2023/10/07 21:23:57;;;;;;;8.82;3.92;;;;;;;20.04;40.96;99148.00;4980102;28;20038;-83
2023/10/07 21:26:38;;;;;;;8.65;4.03;;;;;;;20.04;40.88;99145.34;4980971;28;20492;-83
2023/10/07 21:29:07;;;;;;;7.13;4.10;;;;;;;20.03;40.91;99146.34;4980314;28;20433;-81
2023/10/07 21:31:34;;;;;;;8.38;4.32;;;;;;;20.01;40.79;99139.56;4981725;28;20477;-81
2023/10/07 21:34:01;;;;;;;6.25;3.58;;;;;;;20.02;41.00;99134.09;4980518;28;20120;-81
2023/10/07 21:36:31;;;;;;;5.22;3.63;;;;;;;19.99;41.00;99133.63;4997139;28;20117;-81
2023/10/07 21:38:56;;;;;;;11.18;4.50;;;;;;;19.98;41.01;99134.63;5014397;28;20390;-80
2023/10/07 21:41:22;;;;;;;8.57;4.03;;;;;;;19.96;41.16;99129.47;4964123;28;20088;-81
2023/10/07 21:43:47;;;;;;;7.50;3.85;;;;;;;19.92;40.93;99119.38;5013991;28;20096;-82
2023/10/07 21:46:13;;;;;;;7.22;4.07;;;;;;;19.95;40.89;99127.00;4963838;28;20482;-81
2023/10/07 21:48:38;;;;;;;6.55;3.90;;;;;;;19.92;40.78;99117.56;4963833;28;20042;-81
2023/10/07 21:51:08;;;;;;;7.30;3.85;;;;;;;19.92;40.83;99117.56;4964076;28;20026;-83
2023/10/07 21:53:35;;;;;;;6.68;3.80;;;;;;;19.93;40.88;99113.91;4980421;28;20545;-81
2023/10/07 21:56:02;;;;;;;7.80;4.10;;;;;;;19.92;40.88;99117.56;5013970;28;20448;-81
2023/10/07 21:58:28;;;;;;;11.20;4.00;;;;;;;19.90;40.58;99119.56;4964571;28;20121;-83
2023/10/07 22:03:50;;;;;;;7.85;3.75;;;;;;;19.87;40.62;99111.94;4922072;29;20091;-81
2023/10/07 22:06:16;;;;;;;8.43;4.13;;;;;;;19.86;40.31;99112.91;4919023;29;20106;-81
2023/10/07 22:08:45;;;;;;;8.57;4.30;;;;;;;19.86;40.39;99108.47;4887225;29;20472;-81
2023/10/07 22:11:11;;;;;;;8.77;4.18;;;;;;;19.83;40.25;99108.81;4887792;29;20515;-80
2023/10/07 22:13:37;;;;;;;6.63;3.90;;;;;;;19.81;40.26;99104.66;4886962;29;20044;-80
2023/10/07 22:16:07;;;;;;;6.60;3.13;;;;;;;19.79;40.19;99102.16;4918353;29;20570;-81
2023/10/07 22:18:32;;;;;;;6.75;3.67;;;;;;;19.81;40.19;99100.19;4887520;29;20146;-81
2023/10/07 22:21:00;;;;;;;6.90;3.92;;;;;;;19.80;40.11;99097.72;4902370;29;20166;-80
2023/10/07 22:23:27;;;;;;;7.30;3.78;;;;;;;19.79;40.07;99098.72;4903243;29;20200;-81
2023/10/07 22:25:56;;;;;;;7.22;3.58;;;;;;;19.77;40.19;99090.09;4886591;29;20031;-81
2023/10/07 22:28:23;;;;;;;5.97;3.58;;;;;;;19.72;39.91;99085.28;4886751;29;20079;-81
2023/10/07 22:30:49;;;;;;;8.73;3.55;;;;;;;19.74;40.05;99088.59;4902298;29;20411;-80
2023/10/07 22:33:16;;;;;;;6.60;3.38;;;;;;;19.68;40.04;99081.31;4886844;29;20043;-81
2023/10/07 22:35:45;;;;;;;7.47;3.78;;;;;;;19.70;40.09;99096.03;4918029;29;20098;-80
2023/10/07 22:38:17;;;;;;;8.25;3.97;;;;;;;19.67;39.99;99083.13;4903139;29;20082;-82
2023/10/07 22:40:50;;;;;;;7.32;3.53;;;;;;;19.63;40.19;99081.81;4943130;28;20056;-80
2023/10/07 22:43:20;;;;;;;8.45;3.60;;;;;;;19.58;40.37;99078.84;4964816;28;20773;-81
2023/10/07 22:45:51;;;;;;;11.68;3.90;;;;;;;19.56;40.40;99079.97;4965189;28;20404;-81
2023/10/07 22:48:20;;;;;;;6.35;3.70;;;;;;;19.51;40.25;99068.09;4964081;28;20064;-76
2023/10/07 22:51:00;;;;;;;6.65;3.50;;;;;;;19.53;40.22;99073.22;4963455;28;20132;-77
2023/10/07 22:53:29;;;;;;;6.55;3.80;;;;;;;19.50;40.40;99071.72;4980380;28;20489;-78
2023/10/07 22:55:55;;;;;;;5.93;3.67;;;;;;;19.50;40.29;99070.91;4979657;28;20045;-78
2023/10/07 22:58:22;;;;;;;7.65;3.97;;;;;;;19.48;40.22;99060.47;4979577;28;20053;-78
2023/10/07 23:00:50;;;;;;;10.48;3.75;;;;;;;19.46;40.28;99064.28;4963383;28;20042;-78
2023/10/07 23:03:35;;;;;;;5.50;2.83;;;;;;;19.43;40.27;99059.31;4962845;28;20128;-78
2023/10/07 23:06:17;;;;;;;8.27;3.80;;;;;;;19.42;40.16;99055.00;4967488;28;20037;-79
2023/10/07 23:08:58;;;;;;;6.80;3.65;;;;;;;19.41;40.19;99058.66;4966573;28;20508;-79
2023/10/07 23:11:36;;;;;;;8.48;4.18;;;;;;;19.36;40.22;99047.75;4995294;28;20032;-79
2023/10/07 23:14:06;;;;;;;6.07;3.25;;;;;;;19.33;40.35;99044.41;4997457;28;20046;-79
2023/10/07 23:16:38;;;;;;;5.80;3.60;;;;;;;19.31;39.98;99056.19;4963928;28;20057;-78
2023/10/07 23:19:08;;;;;;;5.85;3.50;;;;;;;19.27;40.35;99047.72;4963511;28;20168;-78
2023/10/07 23:27:12;;;;;;;5.90;3.47;;;;;;;19.17;40.19;99039.13;4984606;28;20069;-78
2023/10/07 23:29:44;;;;;;;6.13;3.50;;;;;;;19.12;40.04;99036.16;4963871;28;20686;-78
2023/10/07 23:34:53;;;;;;;6.75;2.95;;;;;;;19.08;40.09;99029.53;4996457;28;20044;-78
2023/10/07 23:37:20;;;;;;;7.72;3.50;;;;;;;19.08;40.18;99038.28;4963201;28;20029;-79
2023/10/07 23:39:48;;;;;;;5.13;3.05;;;;;;;19.07;40.03;99027.88;4962191;28;20045;-78
2023/10/07 23:42:24;;;;;;;5.63;3.05;;;;;;;19.04;40.03;99029.03;4984416;28;20509;-78
2023/10/07 23:44:54;;;;;;;8.35;3.10;;;;;;;18.97;39.97;99020.91;4998964;28;20455;-79
2023/10/07 23:47:22;;;;;;;9.73;3.13;;;;;;;19.01;40.07;99023.25;4982970;28;20557;-79
2023/10/07 23:49:54;;;;;;;7.03;2.92;;;;;;;18.97;40.02;99018.28;4983505;28;20472;-79
2023/10/07 23:52:23;;;;;;;6.65;3.13;;;;;;;18.96;39.97;99013.16;4968146;28;20030;-79
2023/10/07 23:54:58;;;;;;;5.38;3.28;;;;;;;18.92;39.83;99012.66;4966463;28;20025;-79
2023/10/07 23:57:29;;;;;;;6.50;3.22;;;;;;;18.92;39.75;99004.72;4968151;28;20029;-79
2023/10/07 23:59:58;;;;;;;4.78;3.00;;;;;;;18.91;39.68;99005.72;4966997;28;20182;-79
